163-й км МНП

Карта отелей и гостиниц, располагающихся рядом с аэропортом 163-й км МНП :

163-й км МНП Республика Коми 65° 4' 39.7812" N, 57° 13' 56.1" E
163-й км МНП Республика Коми 65° 4' 39.7812" N, 57° 13' 56.1" E
Код аэродрома ИКАО
UUPM
Код аэродрома RU
УУПМ
Координаты
N65.07772° E057.23225°
Превышение над уровнем моря
65
Основная полоса
10/28
Курс магнитный
099,6/279,6
Длина основной ВПП
30
Ширина основной ВПП
25
Покрытие основной ВПП
Твёрдое (бетон)
Освещение ВПП
Нет
Тип: 
Вертодром
Класс аэродрома: 
Принадлежность: 
ГА
Статус: 
Действующий
Сайт: 
E-mail аэродрома: 
Страна: 
Россия
Регион: 
Республика Коми
Город: 
Дополнительная информация: 
Оператор: Нефте-перекачивающая станция (НПС) "Печора".

Найти трансфер

С помощью этой формы Вы можете найти трансфер из аэропорта 163-й км МНП в город, аэропорт или вокзал:

Карта места

Javascript is required to view this map.

Погода в аэропортах:

Авиационная погода в Игнатьево

Регион: 
Погода METAR: 
UHBB 251530Z 06004MPS 1600 R36/1800U SN SCT026 M22/M24 Q1019 R36/810260 NOSIG RMK QFE746/0995
Время наблюдения
2021-01-25T15:30:00Z
Температура C
-22.0
Точка росы
-24.0
Направление ветра
60
Скорость ветра (узлы)
8
Метео видимость
0.99
Явления погоды
SN
Условия полета
LIFR
Аэропорт подробнее: 

Авиационная погода в Бресте

Регион: 
Погода METAR: 
UMBB 251300Z 01004MPS 0800 +SHSNRA OVC004CB 01/M00 Q0994 R11/590425 NOSIG RMK QBB120
Время наблюдения
2021-01-25T13:00:00Z
Температура C
1.0
Точка росы
0.0
Направление ветра
10
Скорость ветра (узлы)
8
Метео видимость
0.5
Явления погоды
+SHSN +SHRA
Условия полета
LIFR
Аэропорт подробнее: 

Авиационная погода в Мирном

Регион: 
Погода METAR: 
UERR 251600Z VRB01MPS 4000 BR NSC M44/M48 Q1033 R25/490337 NOSIG RMK QFE743/0991
Время наблюдения
2021-01-25T16:00:00Z
Температура C
-44.0
Точка росы
-48.0
Направление ветра
0
Скорость ветра (узлы)
2
Метео видимость
2.49
Явления погоды
BR
Условия полета
IFR
Аэропорт подробнее: 

Авиационная погода в Брянске

Регион: 
Погода METAR: 
UUBP 251230Z 13005MPS 4000 BR OVC008 02/01 Q1007 R16/290250 NOSIG RMK QFE737/0983
Время наблюдения
2021-01-25T12:30:00Z
Температура C
2.0
Точка росы
1.0
Направление ветра
130
Скорость ветра (узлы)
10
Метео видимость
2.49
Явления погоды
BR
Условия полета
IFR
Аэропорт подробнее: